Time;durP1;ratioP1;P1;durP2;ratioP2;P2;SDS_P1;SDS_P2;PMS_P1;PMS_P2;Temp;Humidity;BMP_temperature;BMP_pressure;BME280_temperature;BME280_humidity;BME280_pressure;Samples;Min_cycle;Max_cycle;Signal;HPM_P1;HPM_P2
2023/09/26 00:02:11;;;;;;;0.10;0.10;;;;;;;16.64;66.81;102265.50;5072927;28;20031;-79
2023/09/26 00:04:37;;;;;;;0.00;0.00;;;;;;;16.62;67.07;102254.84;5072876;28;20033;-78
2023/09/26 00:07:04;;;;;;;0.00;0.00;;;;;;;16.62;66.83;102256.63;5076792;28;20032;-79
2023/09/26 00:09:30;;;;;;;0.10;0.10;;;;;;;16.60;67.06;102250.44;5070937;28;20036;-79
2023/09/26 00:11:57;;;;;;;0.10;0.10;;;;;;;16.59;67.14;102254.91;5075486;28;20016;-78
2023/09/26 00:14:23;;;;;;;0.10;0.10;;;;;;;16.58;66.46;102252.28;5076365;28;20028;-78
2023/09/26 00:16:49;;;;;;;0.10;0.10;;;;;;;16.57;67.19;102261.19;5072713;28;20041;-78
2023/09/26 00:19:15;;;;;;;0.00;0.00;;;;;;;16.57;67.09;102261.19;5076816;28;20413;-79
2023/09/26 00:21:41;;;;;;;0.10;0.10;;;;;;;16.57;66.78;102261.19;5078202;28;20036;-79
2023/09/26 00:24:07;;;;;;;0.00;0.00;;;;;;;16.56;66.71;102264.78;5075286;28;20498;-79
2023/09/26 00:26:34;;;;;;;0.10;0.10;;;;;;;16.56;66.96;102259.44;5074671;28;20060;-78
2023/09/26 00:29:00;;;;;;;0.00;0.00;;;;;;;16.57;66.43;102258.53;5076841;28;20095;-79
2023/09/26 00:31:26;;;;;;;0.00;0.00;;;;;;;16.58;66.90;102258.50;5076627;28;20028;-79
2023/09/26 00:33:53;;;;;;;0.20;0.20;;;;;;;16.58;66.95;102268.31;5076476;28;20032;-79
2023/09/26 00:36:19;;;;;;;0.00;0.00;;;;;;;16.59;67.02;102276.31;5075554;28;20033;-78
2023/09/26 00:38:45;;;;;;;0.10;0.10;;;;;;;16.60;67.02;102277.22;5076359;28;20065;-78
2023/09/26 00:41:12;;;;;;;0.10;0.10;;;;;;;16.61;66.63;102270.91;5076891;28;20119;-79
2023/09/26 00:43:38;;;;;;;0.10;0.10;;;;;;;16.60;67.39;102267.38;5076136;28;20029;-79
2023/09/26 00:46:06;;;;;;;0.00;0.00;;;;;;;16.63;66.81;102271.78;5074649;28;20079;-78
2023/09/26 00:48:33;;;;;;;0.00;0.00;;;;;;;16.62;67.23;102267.31;5076550;28;20029;-78
2023/09/26 00:51:00;;;;;;;0.00;0.00;;;;;;;16.62;66.97;102272.69;5076932;28;20052;-77
2023/09/26 00:53:30;;;;;;;0.20;0.20;;;;;;;16.62;67.18;102270.91;5074354;28;20021;-79
2023/09/26 00:55:58;;;;;;;0.40;0.40;;;;;;;16.60;67.36;102271.84;5075441;28;20116;-78
2023/09/26 00:58:25;;;;;;;0.10;0.10;;;;;;;16.59;66.71;102272.75;5075946;28;20481;-78
2023/09/26 01:00:53;;;;;;;0.10;0.10;;;;;;;16.58;66.74;102271.00;5076098;28;20036;-78
2023/09/26 01:03:20;;;;;;;0.65;0.63;;;;;;;16.57;66.85;102261.19;5075961;28;20073;-78
2023/09/26 01:05:47;;;;;;;0.93;0.93;;;;;;;16.55;66.90;102263.03;5076656;28;20165;-78
2023/09/26 01:08:13;;;;;;;0.00;0.00;;;;;;;16.54;67.17;102266.66;5075692;28;20033;-78
2023/09/26 01:10:39;;;;;;;0.00;0.00;;;;;;;16.54;67.18;102272.00;5076779;28;20077;-78
2023/09/26 01:13:05;;;;;;;0.00;0.00;;;;;;;16.52;67.47;102273.81;5076288;28;20117;-78
2023/09/26 01:15:36;;;;;;;0.20;0.20;;;;;;;16.52;67.40;102271.13;5076057;28;20081;-79
2023/09/26 01:18:06;;;;;;;0.00;0.00;;;;;;;16.55;67.07;102268.38;5075768;28;20517;-79
2023/09/26 01:20:34;;;;;;;0.10;0.10;;;;;;;16.56;67.18;102265.69;5075528;28;20490;-79
2023/09/26 01:23:06;;;;;;;0.10;0.10;;;;;;;16.60;67.07;102261.16;5066179;28;20082;-78
2023/09/26 01:25:34;;;;;;;0.22;0.22;;;;;;;16.61;67.52;102263.78;5074165;28;20039;-78
2023/09/26 01:28:05;;;;;;;0.10;0.10;;;;;;;16.64;67.43;102268.19;5072921;28;20036;-78
2023/09/26 01:30:33;;;;;;;0.25;0.25;;;;;;;16.67;67.53;102260.06;5074511;28;20024;-78
2023/09/26 01:33:00;;;;;;;0.08;0.08;;;;;;;16.72;67.33;102266.19;5076338;28;20056;-77
2023/09/26 01:35:26;;;;;;;0.30;0.30;;;;;;;16.75;67.40;102259.91;5079093;28;20024;-77
2023/09/26 01:37:53;;;;;;;0.00;0.00;;;;;;;16.77;67.36;102253.63;5075285;28;20063;-78
2023/09/26 01:40:19;;;;;;;0.00;0.00;;;;;;;16.81;67.06;102249.94;5074918;28;20047;-79
2023/09/26 01:42:45;;;;;;;0.20;0.20;;;;;;;16.84;67.62;102245.44;5075481;28;20024;-79
2023/09/26 01:45:11;;;;;;;0.05;0.05;;;;;;;16.87;67.44;102251.56;5074691;28;20040;-79
2023/09/26 01:47:53;;;;;;;0.30;0.30;;;;;;;16.97;67.24;102241.56;5074684;28;20493;-78
2023/09/26 01:50:21;;;;;;;0.15;0.15;;;;;;;16.93;67.62;102243.44;5070564;28;20060;-78
2023/09/26 01:52:48;;;;;;;0.10;0.10;;;;;;;16.91;68.05;102231.91;5073800;28;20107;-79
2023/09/26 01:55:19;;;;;;;0.20;0.20;;;;;;;16.96;67.58;102226.44;5074871;28;20033;-79
2023/09/26 01:57:46;;;;;;;0.00;0.00;;;;;;;16.93;68.00;102223.81;5074216;28;20028;-79
2023/09/26 02:00:13;;;;;;;0.03;0.03;;;;;;;16.90;67.86;102207.81;5075149;28;20557;-79
2023/09/26 02:02:41;;;;;;;0.00;0.00;;;;;;;16.87;67.89;102200.72;5073297;28;20029;-79
2023/09/26 02:05:09;;;;;;;0.10;0.10;;;;;;;16.85;67.64;102207.03;5068226;28;20095;-79
2023/09/26 02:07:36;;;;;;;0.10;0.10;;;;;;;16.79;67.73;102208.94;5074168;28;20073;-79
2023/09/26 02:10:03;;;;;;;0.17;0.17;;;;;;;16.77;67.98;102221.50;5074701;28;20113;-80
2023/09/26 02:12:30;;;;;;;0.10;0.10;;;;;;;16.75;68.03;102217.97;5075085;28;20114;-80
2023/09/26 02:14:57;;;;;;;0.10;0.10;;;;;;;16.73;67.96;102218.91;5074990;28;20499;-80
2023/09/26 02:17:23;;;;;;;0.32;0.32;;;;;;;16.71;68.04;102210.03;5074469;28;20036;-80
2023/09/26 02:19:49;;;;;;;0.00;0.00;;;;;;;16.67;67.66;102214.59;5074300;28;20034;-80
2023/09/26 02:22:16;;;;;;;0.28;0.28;;;;;;;16.64;67.91;102215.53;5074039;28;20397;-80
2023/09/26 02:24:42;;;;;;;0.10;0.10;;;;;;;16.63;68.08;102218.25;5074179;28;20051;-80
2023/09/26 02:27:08;;;;;;;0.05;0.05;;;;;;;16.60;67.93;102213.84;5074855;28;20082;-80
2023/09/26 02:29:34;;;;;;;0.10;0.10;;;;;;;16.59;68.05;102211.22;5074614;28;20032;-80
2023/09/26 02:32:00;;;;;;;1.65;0.50;;;;;;;16.58;68.01;102204.09;5062163;28;20072;-80
2023/09/26 02:34:26;;;;;;;0.00;0.00;;;;;;;16.57;68.29;102205.03;5074200;28;20055;-80
2023/09/26 02:36:52;;;;;;;20.17;2.47;;;;;;;16.55;68.33;102205.06;5073304;28;20036;-80
2023/09/26 02:39:18;;;;;;;0.10;0.10;;;;;;;16.55;68.03;102204.16;5074248;28;20081;-80
2023/09/26 02:41:44;;;;;;;0.63;0.63;;;;;;;16.50;68.41;102202.47;5074511;28;20040;-80
2023/09/26 02:44:11;;;;;;;0.30;0.30;;;;;;;16.48;68.32;102200.75;5074409;28;20689;-81
2023/09/26 02:46:37;;;;;;;0.10;0.10;;;;;;;16.47;68.02;102205.25;5073092;28;20092;-80
2023/09/26 02:49:03;;;;;;;0.00;0.00;;;;;;;16.46;68.09;102210.59;5074896;28;20121;-81
2023/09/26 02:51:29;;;;;;;0.00;0.00;;;;;;;16.44;67.94;102199.94;5073654;28;20036;-79
2023/09/26 02:53:55;;;;;;;0.00;0.00;;;;;;;16.42;68.34;102199.09;5075098;28;20052;-80
2023/09/26 02:56:21;;;;;;;0.10;0.10;;;;;;;16.40;68.15;102200.94;5073989;28;20521;-80
2023/09/26 02:58:48;;;;;;;0.05;0.05;;;;;;;16.40;68.13;102200.94;5074982;28;20045;-80
2023/09/26 03:01:16;;;;;;;0.00;0.00;;;;;;;16.39;68.12;102196.50;5073884;28;20039;-80
2023/09/26 03:03:42;;;;;;;0.80;0.80;;;;;;;16.37;68.22;102200.13;5074407;28;20023;-80
2023/09/26 03:06:08;;;;;;;0.05;0.05;;;;;;;16.36;68.15;102196.56;5077631;28;20111;-80
2023/09/26 03:08:34;;;;;;;0.03;0.03;;;;;;;16.36;68.11;102201.03;5077595;28;20039;-80
2023/09/26 03:11:01;;;;;;;0.00;0.00;;;;;;;16.36;68.25;102206.38;5078501;28;20039;-80
2023/09/26 03:13:32;;;;;;;0.00;0.00;;;;;;;16.37;68.11;102206.34;5077391;28;20032;-80
2023/09/26 03:15:59;;;;;;;0.10;0.10;;;;;;;16.38;68.10;102197.41;5076796;28;20457;-81
2023/09/26 03:18:26;;;;;;;0.05;0.05;;;;;;;16.39;68.21;102193.84;5077036;28;20029;-80
2023/09/26 03:20:52;;;;;;;0.47;0.47;;;;;;;16.42;68.00;102193.75;5077595;28;20029;-80
2023/09/26 03:23:21;;;;;;;0.10;0.10;;;;;;;16.42;68.08;102188.38;5076597;28;20025;-80
2023/09/26 03:25:47;;;;;;;0.35;0.35;;;;;;;16.44;68.44;102194.59;5077372;28;20060;-81
2023/09/26 03:28:13;;;;;;;0.00;0.00;;;;;;;16.45;68.29;102183.00;5077765;28;20413;-81
2023/09/26 03:30:41;;;;;;;0.10;0.10;;;;;;;16.48;68.26;102182.91;5077938;28;20371;-81
2023/09/26 03:33:08;;;;;;;0.00;0.00;;;;;;;16.40;68.75;102182.22;5064082;28;20557;-81
2023/09/26 03:35:34;;;;;;;0.03;0.03;;;;;;;16.46;68.83;102176.72;5077248;28;20465;-81
2023/09/26 03:38:00;;;;;;;0.10;0.10;;;;;;;16.46;68.57;102174.06;5077506;28;20032;-80
2023/09/26 03:40:26;;;;;;;0.40;0.40;;;;;;;16.47;68.49;102172.25;5076612;28;20094;-81
2023/09/26 03:42:53;;;;;;;0.10;0.10;;;;;;;16.46;68.37;102168.69;5077337;28;20043;-80
2023/09/26 03:45:19;;;;;;;0.08;0.08;;;;;;;16.46;67.69;102160.69;5077156;28;20490;-79
2023/09/26 03:47:45;;;;;;;0.10;0.10;;;;;;;16.44;68.18;102159.81;5076190;28;20401;-80
2023/09/26 03:50:11;;;;;;;0.00;0.00;;;;;;;16.43;68.86;102158.06;5077900;28;20036;-80
2023/09/26 03:52:37;;;;;;;0.10;0.10;;;;;;;16.43;68.48;102163.41;5067902;28;20031;-80
2023/09/26 03:55:03;;;;;;;0.10;0.10;;;;;;;16.43;68.14;102165.22;5076968;28;20033;-79
2023/09/26 03:57:32;;;;;;;0.10;0.10;;;;;;;16.43;68.36;102159.88;5077228;28;20497;-79
2023/09/26 03:59:58;;;;;;;0.10;0.10;;;;;;;16.40;68.42;102158.16;5078083;28;20525;-79
2023/09/26 04:02:24;;;;;;;0.00;0.00;;;;;;;16.40;68.57;102160.81;5076878;28;20028;-79
2023/09/26 04:04:50;;;;;;;0.05;0.05;;;;;;;16.39;68.32;102156.38;5077095;28;20085;-79
2023/09/26 04:07:16;;;;;;;0.10;0.10;;;;;;;16.38;69.16;102149.25;5075831;28;20060;-79
2023/09/26 04:09:42;;;;;;;0.10;0.10;;;;;;;16.37;68.53;102147.50;5077277;28;20747;-79
2023/09/26 04:12:09;;;;;;;0.00;0.00;;;;;;;16.36;68.91;102151.09;5076547;28;20413;-79
2023/09/26 04:14:35;;;;;;;0.38;0.38;;;;;;;16.33;68.68;102152.03;5075656;28;20036;-80
2023/09/26 04:17:02;;;;;;;0.10;0.10;;;;;;;16.31;69.14;102147.66;5070203;28;20032;-79
2023/09/26 04:19:28;;;;;;;0.20;0.20;;;;;;;16.30;68.43;102148.59;5073592;28;20032;-80
2023/09/26 04:21:54;;;;;;;0.10;0.10;;;;;;;16.27;69.03;102151.31;5069694;28;20025;-80
2023/09/26 04:24:21;;;;;;;0.22;0.22;;;;;;;16.26;68.83;102152.22;5076353;28;20037;-80
2023/09/26 04:26:47;;;;;;;0.10;0.10;;;;;;;16.26;68.75;102157.56;5076121;28;20020;-80
2023/09/26 04:29:13;;;;;;;0.35;0.35;;;;;;;16.23;69.33;102149.63;5076919;28;20443;-80
2023/09/26 04:31:40;;;;;;;0.03;0.03;;;;;;;16.21;69.59;102157.66;5075970;28;20036;-81
2023/09/26 04:34:06;;;;;;;0.20;0.20;;;;;;;16.20;69.17;102147.91;5076376;28;20158;-81
2023/09/26 04:36:32;;;;;;;0.00;0.00;;;;;;;16.19;69.02;102146.16;5075979;28;20039;-80
2023/09/26 04:38:58;;;;;;;4.47;0.98;;;;;;;16.19;69.33;102151.50;5076311;28;20060;-81
2023/09/26 04:41:24;;;;;;;0.10;0.10;;;;;;;16.19;69.28;102143.47;5076719;28;20035;-81
2023/09/26 04:43:50;;;;;;;0.10;0.10;;;;;;;16.19;69.44;102148.81;5075996;28;20048;-80
2023/09/26 04:46:17;;;;;;;0.20;0.20;;;;;;;16.20;69.32;102149.69;5075372;28;20040;-81
2023/09/26 04:48:44;;;;;;;0.00;0.00;;;;;;;16.19;69.70;102146.16;5075507;28;20039;-81
2023/09/26 04:51:12;;;;;;;0.10;0.10;;;;;;;16.21;69.13;102146.09;5075789;28;20024;-81
2023/09/26 04:53:38;;;;;;;1.75;0.63;;;;;;;16.21;69.49;102141.63;5076509;28;20044;-80
2023/09/26 04:56:05;;;;;;;0.10;0.10;;;;;;;16.21;69.55;102140.75;5075222;28;20066;-80
2023/09/26 04:58:32;;;;;;;0.13;0.13;;;;;;;16.21;69.44;102141.63;5068649;28;20088;-80
2023/09/26 05:01:00;;;;;;;0.10;0.10;;;;;;;16.21;69.09;102135.41;5074418;28;20063;-80
2023/09/26 05:03:27;;;;;;;0.10;0.10;;;;;;;16.21;69.29;102140.75;5076173;28;20024;-79
2023/09/26 05:05:53;;;;;;;0.22;0.22;;;;;;;16.20;69.10;102139.91;5074557;28;20505;-79
2023/09/26 05:08:19;;;;;;;0.13;0.13;;;;;;;16.21;69.13;102140.75;5075764;28;20055;-79
2023/09/26 05:10:48;;;;;;;0.40;0.40;;;;;;;16.21;68.96;102140.75;5075529;28;20455;-80
2023/09/26 05:13:14;;;;;;;0.55;0.45;;;;;;;16.22;69.12;102142.53;5075657;28;20027;-80
2023/09/26 05:15:40;;;;;;;0.10;0.10;;;;;;;16.22;68.88;102147.88;5073691;28;20032;-81
2023/09/26 05:18:06;;;;;;;0.00;0.00;;;;;;;16.21;69.05;102151.47;5076910;28;20044;-80
2023/09/26 05:20:32;;;;;;;0.10;0.10;;;;;;;16.18;69.25;102145.25;5075928;28;20021;-80
2023/09/26 05:23:00;;;;;;;0.00;0.00;;;;;;;16.18;68.92;102153.28;5073775;28;20085;-80
2023/09/26 05:25:26;;;;;;;0.20;0.20;;;;;;;16.18;68.59;102147.06;5073567;28;20067;-80
2023/09/26 05:27:53;;;;;;;0.10;0.10;;;;;;;16.18;69.04;102142.56;5071280;28;20083;-80
2023/09/26 05:30:19;;;;;;;0.10;0.10;;;;;;;16.19;68.94;102146.16;5068052;28;20040;-80
2023/09/26 05:32:45;;;;;;;0.00;0.00;;;;;;;16.20;68.44;102145.25;5074393;28;20028;-80
2023/09/26 05:35:11;;;;;;;0.00;0.00;;;;;;;16.21;68.56;102141.63;5072774;28;20039;-80
2023/09/26 05:37:38;;;;;;;0.00;0.00;;;;;;;16.22;68.71;102139.84;5062217;28;20091;-79
2023/09/26 05:40:07;;;;;;;0.20;0.20;;;;;;;16.22;69.21;102135.38;5061830;28;20033;-80
2023/09/26 05:42:35;;;;;;;0.10;0.10;;;;;;;16.22;69.52;102127.34;5063004;28;20040;-81
2023/09/26 05:45:03;;;;;;;0.10;0.10;;;;;;;16.20;69.23;102114.94;5066862;28;20671;-80
2023/09/26 05:47:29;;;;;;;0.20;0.20;;;;;;;16.17;69.40;102130.16;5062146;28;20028;-80
2023/09/26 05:49:55;;;;;;;0.40;0.40;;;;;;;16.16;69.54;102128.38;5068899;28;20029;-81
2023/09/26 05:52:21;;;;;;;0.20;0.20;;;;;;;16.17;69.38;102135.50;5062009;28;20112;-80
2023/09/26 05:54:47;;;;;;;0.00;0.00;;;;;;;16.17;69.42;102135.50;5072726;28;20025;-80
2023/09/26 05:57:14;;;;;;;1.45;1.00;;;;;;;16.17;69.57;102140.84;5068392;28;20037;-81
2023/09/26 05:59:40;;;;;;;0.22;0.22;;;;;;;16.19;69.16;102138.13;5067421;28;20486;-80
2023/09/26 06:02:10;;;;;;;0.00;0.00;;;;;;;16.20;69.35;102139.91;5070418;28;20036;-80
2023/09/26 06:04:41;;;;;;;0.10;0.10;;;;;;;16.24;69.28;102146.06;5067742;28;20025;-81
2023/09/26 06:07:08;;;;;;;0.10;0.10;;;;;;;16.22;69.68;102146.06;5071955;28;20119;-80
2023/09/26 06:09:35;;;;;;;0.10;0.10;;;;;;;16.25;69.40;102137.09;5074541;28;20036;-81
2023/09/26 06:12:04;;;;;;;0.45;0.45;;;;;;;16.27;69.54;102144.16;5072010;28;20497;-80
2023/09/26 06:14:32;;;;;;;0.10;0.10;;;;;;;16.29;69.73;102139.66;5070050;28;20028;-80
2023/09/26 06:16:59;;;;;;;0.10;0.10;;;;;;;16.31;69.68;102148.53;5061352;28;20103;-80
2023/09/26 06:19:25;;;;;;;0.00;0.00;;;;;;;16.36;69.40;102136.84;5075244;28;20066;-80
2023/09/26 06:21:51;;;;;;;0.10;0.10;;;;;;;16.38;69.38;102138.56;5070671;28;20052;-79
2023/09/26 06:24:17;;;;;;;0.00;0.00;;;;;;;16.40;69.65;102134.06;5071108;28;20068;-79
2023/09/26 06:26:43;;;;;;;0.10;0.10;;;;;;;16.41;69.65;102133.16;5071402;28;20032;-80
2023/09/26 06:29:09;;;;;;;0.05;0.05;;;;;;;16.43;69.28;102131.31;5063348;28;20036;-80
2023/09/26 06:31:35;;;;;;;0.00;0.00;;;;;;;16.42;69.60;102132.22;5066084;28;20040;-80
2023/09/26 06:34:01;;;;;;;0.08;0.08;;;;;;;16.44;69.42;102126.84;5068577;28;20036;-81
2023/09/26 06:36:31;;;;;;;0.10;0.10;;;;;;;16.45;69.29;102129.50;5058990;28;20035;-80
2023/09/26 06:38:58;;;;;;;0.10;0.10;;;;;;;16.47;68.93;102127.66;5075759;28;20016;-81
2023/09/26 06:41:24;;;;;;;0.10;0.10;;;;;;;16.49;69.05;102141.00;5074112;28;20481;-80
2023/09/26 06:43:51;;;;;;;0.10;0.10;;;;;;;16.53;69.16;102144.47;5077256;28;20020;-80
2023/09/26 06:46:17;;;;;;;0.28;0.28;;;;;;;16.58;69.29;102131.88;5077924;28;20112;-80
2023/09/26 06:48:43;;;;;;;0.10;0.10;;;;;;;16.63;69.40;102124.59;5078603;28;20039;-79
2023/09/26 06:51:09;;;;;;;0.10;0.10;;;;;;;16.67;69.96;102134.28;5069249;28;20429;-80
2023/09/26 06:53:36;;;;;;;0.20;0.20;;;;;;;16.73;69.81;102131.47;5077351;28;20028;-79
2023/09/26 06:56:05;;;;;;;0.10;0.10;;;;;;;16.76;70.13;102128.72;5076886;28;20040;-80
2023/09/26 06:58:32;;;;;;;0.10;0.10;;;;;;;16.81;69.51;102129.50;5077637;28;20043;-80
2023/09/26 07:00:59;;;;;;;0.00;0.00;;;;;;;16.86;69.78;102125.81;5073577;28;20053;-80
2023/09/26 07:03:27;;;;;;;0.10;0.10;;;;;;;16.91;69.40;102130.16;5075752;28;20713;-80
2023/09/26 07:05:54;;;;;;;0.10;0.10;;;;;;;16.93;69.61;102122.94;5078114;28;20036;-80
2023/09/26 07:08:20;;;;;;;0.10;0.10;;;;;;;16.97;69.58;102126.44;5078701;28;20040;-80
2023/09/26 07:10:46;;;;;;;0.32;0.32;;;;;;;17.02;69.22;102123.63;5078655;28;20025;-80
2023/09/26 07:13:14;;;;;;;0.20;0.20;;;;;;;17.04;69.07;102114.66;5076222;28;20033;-81
2023/09/26 07:15:42;;;;;;;0.63;0.63;;;;;;;17.08;69.17;102118.13;5077711;28;20024;-82
2023/09/26 07:18:10;;;;;;;0.20;0.20;;;;;;;17.11;69.07;102118.06;5077531;28;20036;-80
2023/09/26 07:20:43;;;;;;;0.00;0.00;;;;;;;17.16;69.05;102125.94;5078722;28;20021;-80
2023/09/26 07:23:09;;;;;;;0.20;0.20;;;;;;;17.19;69.16;102120.53;5072832;28;20273;-80
2023/09/26 07:25:35;;;;;;;0.10;0.10;;;;;;;17.23;69.02;102112.34;5074706;28;20798;-80
2023/09/26 07:28:01;;;;;;;0.10;0.10;;;;;;;17.31;69.26;102112.16;5063759;28;20700;-80
2023/09/26 07:30:27;;;;;;;0.20;0.20;;;;;;;17.33;69.44;102112.97;5065616;28;20332;-79
2023/09/26 07:32:54;;;;;;;0.10;0.10;;;;;;;17.41;68.81;102110.97;5072953;28;20590;-80
2023/09/26 07:35:20;;;;;;;0.20;0.20;;;;;;;17.49;68.99;102123.25;5061385;28;20082;-80
2023/09/26 07:37:46;;;;;;;0.00;0.00;;;;;;;17.54;69.27;102122.19;5062633;28;20029;-80
2023/09/26 07:40:12;;;;;;;0.10;0.10;;;;;;;17.62;68.80;102117.50;5072850;28;20131;-80
2023/09/26 07:42:40;;;;;;;0.03;0.03;;;;;;;17.71;68.71;102124.38;5079329;28;20066;-80
2023/09/26 07:45:06;;;;;;;0.70;0.70;;;;;;;17.77;68.75;102123.34;5070736;28;20033;-80
2023/09/26 07:47:32;;;;;;;0.05;0.05;;;;;;;17.86;68.52;102128.41;5062512;28;20028;-79
2023/09/26 07:49:59;;;;;;;0.32;0.32;;;;;;;17.93;68.61;102124.63;5072961;28;20028;-79
2023/09/26 07:52:26;;;;;;;0.85;0.85;;;;;;;18.01;68.74;102127.09;5066429;28;20035;-79
2023/09/26 07:54:53;;;;;;;0.20;0.20;;;;;;;18.03;68.43;102130.63;5073313;28;20082;-80
2023/09/26 07:57:20;;;;;;;0.05;0.05;;;;;;;18.15;68.14;102131.16;5075498;28;20036;-80
2023/09/26 07:59:47;;;;;;;0.20;0.20;;;;;;;18.19;68.23;102135.50;5072627;28;20035;-80
2023/09/26 08:02:13;;;;;;;1.13;1.02;;;;;;;18.26;68.10;102126.34;5070089;28;20036;-80
2023/09/26 08:04:39;;;;;;;0.00;0.00;;;;;;;18.30;68.19;102122.63;5074521;28;20040;-82
2023/09/26 08:07:05;;;;;;;0.13;0.13;;;;;;;18.35;68.04;102115.28;5070807;28;20041;-81
2023/09/26 08:09:31;;;;;;;0.65;0.65;;;;;;;18.40;67.99;102116.00;5076442;28;20027;-80
2023/09/26 08:11:58;;;;;;;0.20;0.20;;;;;;;18.44;68.14;102119.47;5075595;28;20024;-80
2023/09/26 08:14:24;;;;;;;0.05;0.05;;;;;;;18.52;67.91;102121.94;5067894;28;20059;-80
2023/09/26 08:16:50;;;;;;;0.20;0.20;;;;;;;18.53;67.79;102120.97;5065670;28;20029;-80
2023/09/26 08:19:16;;;;;;;0.85;0.85;;;;;;;18.57;67.59;102119.97;5062153;28;20048;-80
2023/09/26 08:21:44;;;;;;;0.47;0.47;;;;;;;18.62;67.72;102128.75;5062635;28;20464;-81
2023/09/26 08:24:10;;;;;;;0.10;0.10;;;;;;;18.63;67.73;102122.44;5077064;28;20064;-80
2023/09/26 08:26:37;;;;;;;0.10;0.10;;;;;;;18.68;67.58;102117.81;5064474;28;20044;-79
2023/09/26 08:29:05;;;;;;;1.35;0.93;;;;;;;18.69;67.55;102124.94;5077478;28;20032;-79
2023/09/26 08:31:31;;;;;;;1.05;1.05;;;;;;;18.74;67.50;102122.97;5071551;28;20032;-79
2023/09/26 08:33:57;;;;;;;0.10;0.10;;;;;;;18.81;67.42;102123.63;5075364;28;20040;-78
2023/09/26 08:36:24;;;;;;;1.95;1.85;;;;;;;18.89;67.56;102113.50;5079505;28;20071;-80
2023/09/26 08:38:51;;;;;;;0.45;0.45;;;;;;;19.00;67.23;102102.41;5076520;28;20012;-79
2023/09/26 08:41:18;;;;;;;0.10;0.10;;;;;;;19.08;66.10;102110.22;5074027;28;20111;-80
2023/09/26 08:43:45;;;;;;;0.10;0.10;;;;;;;19.20;65.86;102111.56;5077543;28;20066;-80
2023/09/26 08:46:12;;;;;;;0.13;0.13;;;;;;;19.35;66.03;102119.06;5071908;28;20539;-79
2023/09/26 08:48:40;;;;;;;0.10;0.10;;;;;;;19.47;65.80;102119.56;5073105;28;20420;-79
2023/09/26 08:51:06;;;;;;;0.10;0.10;;;;;;;19.58;65.67;102109.28;5067302;28;20028;-80
2023/09/26 08:53:33;;;;;;;0.30;0.30;;;;;;;19.62;65.03;102104.66;5068310;28;20051;-79
2023/09/26 08:55:59;;;;;;;0.15;0.15;;;;;;;19.74;64.42;102101.50;5069912;28;20490;-78
2023/09/26 08:58:27;;;;;;;0.20;0.20;;;;;;;19.85;64.70;102099.31;5075730;28;20040;-79
2023/09/26 09:00:54;;;;;;;0.47;0.47;;;;;;;19.96;64.77;102088.13;5069234;28;20101;-79
2023/09/26 09:03:20;;;;;;;0.20;0.20;;;;;;;20.04;64.69;102086.00;5059525;28;20152;-79
2023/09/26 09:05:47;;;;;;;0.15;0.15;;;;;;;20.14;64.78;102093.72;5069561;28;20054;-79
2023/09/26 09:08:21;;;;;;;0.13;0.13;;;;;;;20.24;64.23;102096.88;5073275;28;20025;-79
2023/09/26 09:10:56;;;;;;;1.20;0.47;;;;;;;20.20;63.40;102090.78;5073719;28;20502;-79
2023/09/26 09:13:38;;;;;;;0.10;0.10;;;;;;;20.28;63.67;102077.84;5075740;28;20025;-80
2023/09/26 09:16:14;;;;;;;0.17;0.17;;;;;;;20.26;63.68;102092.31;5066472;28;20032;-81
2023/09/26 09:18:43;;;;;;;0.15;0.15;;;;;;;20.13;63.14;102089.25;5076566;28;20274;-81
2023/09/26 09:21:30;;;;;;;0.20;0.20;;;;;;;20.19;63.56;102094.41;5065545;28;20555;-80
2023/09/26 09:24:01;;;;;;;0.00;0.00;;;;;;;20.09;63.47;102085.81;5076571;28;20115;-80
2023/09/26 09:26:31;;;;;;;0.00;0.00;;;;;;;20.13;64.01;102095.50;5072323;28;20086;-79
2023/09/26 09:29:14;;;;;;;0.10;0.10;;;;;;;20.13;64.08;102089.25;5078164;28;20405;-81
2023/09/26 09:31:40;;;;;;;0.10;0.10;;;;;;;20.14;64.15;102091.88;5075892;28;20100;-80
2023/09/26 09:34:07;;;;;;;0.75;0.75;;;;;;;20.13;64.30;102082.06;5076731;28;20024;-81
2023/09/26 09:36:33;;;;;;;0.10;0.10;;;;;;;20.16;64.58;102081.94;5080616;28;20120;-81
2023/09/26 09:39:02;;;;;;;0.80;0.80;;;;;;;20.13;64.41;102090.13;5088277;28;20500;-82
2023/09/26 09:41:28;;;;;;;0.03;0.03;;;;;;;20.13;64.19;102097.34;5074791;28;20040;-82
2023/09/26 09:43:54;;;;;;;0.15;0.15;;;;;;;20.11;63.78;102093.81;5076553;28;20545;-80
2023/09/26 09:46:23;;;;;;;0.65;0.63;;;;;;;20.15;63.86;102092.75;5069813;28;20040;-81
2023/09/26 09:48:57;;;;;;;0.10;0.10;;;;;;;20.17;63.95;102090.88;5071527;28;20051;-81
2023/09/26 09:51:26;;;;;;;0.00;0.00;;;;;;;20.18;63.90;102082.72;5072703;28;20497;-82
2023/09/26 09:53:54;;;;;;;0.52;0.52;;;;;;;20.22;63.90;102083.50;5069800;28;20364;-82
2023/09/26 09:56:24;;;;;;;8.20;0.63;;;;;;;20.22;64.25;102088.00;5075592;28;20032;-82
2023/09/26 09:58:56;;;;;;;0.75;0.70;;;;;;;20.27;64.21;102086.88;5081307;28;20112;-81
2023/09/26 10:01:23;;;;;;;0.45;0.45;;;;;;;20.35;63.93;102091.94;5078583;28;20112;-80
2023/09/26 10:03:50;;;;;;;0.10;0.10;;;;;;;20.43;64.00;102097.88;5071959;28;20031;-80
2023/09/26 10:06:18;;;;;;;0.20;0.20;;;;;;;20.56;63.80;102091.97;5071805;28;20410;-81
2023/09/26 10:08:47;;;;;;;0.13;0.13;;;;;;;20.66;63.24;102094.22;5064591;28;20123;-82
2023/09/26 10:11:15;;;;;;;0.10;0.10;;;;;;;20.76;63.16;102093.84;5066375;28;20033;-81
2023/09/26 10:13:41;;;;;;;0.57;0.57;;;;;;;20.79;61.97;102091.91;5068628;28;20043;-81
2023/09/26 10:16:18;;;;;;;0.80;0.80;;;;;;;20.84;61.25;102084.50;5063895;28;20037;-81
2023/09/26 10:18:46;;;;;;;0.52;0.52;;;;;;;21.01;61.47;102083.75;5071717;28;20029;-81
2023/09/26 10:21:20;;;;;;;0.10;0.10;;;;;;;21.23;61.08;102079.22;5064529;28;20039;-81
2023/09/26 10:26:47;;;;;;;0.10;0.10;;;;;;;21.58;59.87;102083.03;5112405;27;20408;-81
2023/09/26 10:32:10;;;;;;;0.10;0.10;;;;;;;21.78;59.05;102075.81;5080666;28;20402;-81
2023/09/26 10:34:38;;;;;;;0.20;0.20;;;;;;;21.83;59.00;102071.06;5071111;28;20057;-80
2023/09/26 10:37:08;;;;;;;0.52;0.52;;;;;;;21.92;59.19;102057.13;5069340;28;20051;-81
2023/09/26 10:39:36;;;;;;;4.18;1.23;;;;;;;22.01;59.41;102052.22;5071781;28;20036;-81
2023/09/26 10:42:20;;;;;;;0.30;0.30;;;;;;;22.13;58.87;102051.63;5061297;28;20025;-80
2023/09/26 10:44:49;;;;;;;0.15;0.15;;;;;;;22.12;58.74;102055.28;5062987;28;20029;-81
2023/09/26 10:47:16;;;;;;;0.10;0.10;;;;;;;22.20;58.51;102060.31;5073602;28;20056;-80
2023/09/26 10:49:44;;;;;;;0.10;0.10;;;;;;;22.36;58.33;102060.41;5062814;28;20055;-79
2023/09/26 10:52:12;;;;;;;0.10;0.10;;;;;;;22.51;57.96;102062.34;5064627;28;20082;-79
2023/09/26 10:54:41;;;;;;;0.30;0.30;;;;;;;22.61;56.26;102069.03;5079905;28;20055;-79
2023/09/26 10:57:08;;;;;;;0.10;0.10;;;;;;;22.82;56.47;102060.75;5073369;28;20029;-80
2023/09/26 10:59:34;;;;;;;0.00;0.00;;;;;;;22.80;54.30;102054.56;5061370;28;20034;-79
2023/09/26 11:02:03;;;;;;;0.10;0.10;;;;;;;23.05;56.58;102046.03;5063937;28;20083;-80
2023/09/26 11:04:31;;;;;;;0.20;0.20;;;;;;;23.09;55.06;102042.22;5062847;28;20082;-80
2023/09/26 11:07:00;;;;;;;0.25;0.25;;;;;;;23.28;55.04;102033.13;5061459;28;20481;-80
2023/09/26 11:09:27;;;;;;;0.77;0.77;;;;;;;23.39;55.09;102037.91;5066791;28;20082;-80
2023/09/26 11:11:56;;;;;;;0.10;0.10;;;;;;;23.42;54.97;102027.81;5058618;28;20065;-80
2023/09/26 11:14:23;;;;;;;0.00;0.00;;;;;;;23.57;54.21;102027.91;5061944;28;20071;-80
2023/09/26 11:16:50;;;;;;;0.00;0.00;;;;;;;23.71;54.08;102037.97;5061667;28;20033;-80
2023/09/26 11:19:17;;;;;;;0.10;0.10;;;;;;;23.89;54.13;102031.50;5056926;28;20600;-80
2023/09/26 11:21:43;;;;;;;0.08;0.08;;;;;;;24.04;53.18;102031.63;5061400;28;20513;-80
2023/09/26 11:27:04;;;;;;;0.10;0.10;;;;;;;24.36;52.04;102021.59;5111286;27;20412;-81
2023/09/26 11:29:33;;;;;;;10.02;0.63;;;;;;;24.45;52.64;102001.19;5099768;28;20062;-81
2023/09/26 11:32:00;;;;;;;0.10;0.10;;;;;;;24.50;50.99;102011.72;5107042;28;20085;-81
2023/09/26 11:34:27;;;;;;;0.73;0.65;;;;;;;24.54;50.69;102003.31;5100265;28;20430;-81